createdAt,value
2023-05-04T00:00:19.867Z,7.70
2023-05-04T00:02:47.061Z,7.70
2023-05-04T00:05:14.292Z,7.70
2023-05-04T00:07:41.234Z,7.70
2023-05-04T00:10:09.292Z,7.70
2023-05-04T00:12:36.209Z,7.70
2023-05-04T00:15:04.035Z,7.70
2023-05-04T00:17:31.819Z,7.70
2023-05-04T00:19:58.749Z,7.70
2023-05-04T00:22:25.897Z,7.70
2023-05-04T00:24:52.753Z,7.70
2023-05-04T00:27:19.729Z,7.60
2023-05-04T00:29:46.660Z,7.60
2023-05-04T00:32:13.585Z,7.50
2023-05-04T00:34:40.466Z,7.50
2023-05-04T00:37:07.818Z,7.60
2023-05-04T00:39:37.639Z,7.60
2023-05-04T00:42:04.605Z,7.60
2023-05-04T00:44:31.687Z,7.50
2023-05-04T00:46:58.836Z,7.50
2023-05-04T00:49:26.653Z,7.60
2023-05-04T00:51:57.571Z,7.60
2023-05-04T00:54:25.770Z,7.60
2023-05-04T00:56:53.226Z,7.70
2023-05-04T00:59:20.214Z,7.70
2023-05-04T01:01:47.114Z,7.60
2023-05-04T01:04:16.354Z,7.50
2023-05-04T01:07:03.465Z,7.60
2023-05-04T01:09:53.801Z,7.50
2023-05-04T01:12:35.760Z,7.50
2023-05-04T01:15:03.863Z,7.40
2023-05-04T01:17:31.220Z,7.40
2023-05-04T01:19:58.119Z,7.30
2023-05-04T01:22:25.277Z,7.30
2023-05-04T01:24:52.409Z,7.20
2023-05-04T01:27:46.061Z,7.20
2023-05-04T01:30:23.761Z,7.20
2023-05-04T01:32:52.959Z,7.10
2023-05-04T01:35:20.121Z,7.10
2023-05-04T01:37:47.006Z,7.10
2023-05-04T01:40:13.936Z,7.00
2023-05-04T01:42:40.933Z,7.00
2023-05-04T01:45:09.147Z,7.00
2023-05-04T01:47:36.237Z,7.00
2023-05-04T01:50:05.539Z,7.00
2023-05-04T01:52:32.794Z,7.00
2023-05-04T01:54:59.732Z,7.00
2023-05-04T01:57:26.710Z,7.00
2023-05-04T01:59:53.636Z,6.90
2023-05-04T02:02:20.478Z,6.90
2023-05-04T02:04:47.347Z,6.80
2023-05-04T02:07:14.311Z,6.80
2023-05-04T02:09:41.290Z,6.80
2023-05-04T02:12:08.511Z,6.80
2023-05-04T02:14:35.522Z,6.80
2023-05-04T02:17:02.384Z,6.40
2023-05-04T02:19:29.245Z,6.10
2023-05-04T02:21:56.126Z,5.80
2023-05-04T02:24:22.969Z,5.80
2023-05-04T02:26:49.950Z,5.80
2023-05-04T02:29:16.869Z,5.50
2023-05-04T02:31:43.838Z,5.30
2023-05-04T02:34:10.784Z,5.10
2023-05-04T02:36:37.734Z,5.10
2023-05-04T02:39:04.657Z,5.00
2023-05-04T02:41:31.625Z,4.90
2023-05-04T02:43:58.496Z,4.70
2023-05-04T02:46:26.687Z,4.60
2023-05-04T02:48:53.673Z,4.60
2023-05-04T02:51:20.633Z,4.80
2023-05-04T02:53:47.530Z,5.10
2023-05-04T02:56:14.482Z,5.40
2023-05-04T02:58:41.523Z,5.50
2023-05-04T03:01:08.473Z,5.70
2023-05-04T03:03:35.529Z,5.80
2023-05-04T03:06:02.544Z,5.80
2023-05-04T03:08:30.119Z,6.00
2023-05-04T03:10:57.027Z,6.20
2023-05-04T03:13:23.911Z,6.30
2023-05-04T03:15:50.793Z,6.50
2023-05-04T03:18:17.716Z,6.50
2023-05-04T03:20:44.601Z,6.50
2023-05-04T03:23:11.529Z,6.60
2023-05-04T03:25:38.441Z,6.70
2023-05-04T03:28:05.809Z,6.80
2023-05-04T03:30:32.669Z,6.80
2023-05-04T03:33:00.090Z,6.80
2023-05-04T03:35:27.057Z,6.90
2023-05-04T03:37:53.991Z,7.00
2023-05-04T03:40:22.942Z,7.10
2023-05-04T03:42:54.169Z,7.10
2023-05-04T03:45:22.772Z,7.10
2023-05-04T03:47:49.797Z,7.10
2023-05-04T03:50:16.688Z,7.10
2023-05-04T03:52:43.532Z,7.10
2023-05-04T03:55:10.547Z,7.10
2023-05-04T03:57:37.484Z,7.00
2023-05-04T04:00:05.873Z,7.00
2023-05-04T04:02:33.332Z,7.00
2023-05-04T04:05:00.364Z,7.00
2023-05-04T04:07:27.261Z,7.00
2023-05-04T04:09:54.855Z,6.90
2023-05-04T04:12:21.813Z,7.00
2023-05-04T04:14:49.366Z,7.00
2023-05-04T04:17:16.319Z,7.00
2023-05-04T04:19:43.210Z,6.90
2023-05-04T04:22:10.586Z,7.00
2023-05-04T04:24:37.603Z,6.90
2023-05-04T04:27:04.676Z,7.00
2023-05-04T04:29:32.815Z,7.00
2023-05-04T04:31:59.675Z,7.00
2023-05-04T04:34:27.056Z,7.00
2023-05-04T04:36:54.013Z,7.00
2023-05-04T04:39:20.985Z,7.10
2023-05-04T04:41:48.001Z,7.20
2023-05-04T04:44:14.995Z,7.30
2023-05-04T04:46:41.966Z,7.40
2023-05-04T04:49:08.994Z,7.50
2023-05-04T04:51:36.502Z,7.60
2023-05-04T04:54:03.376Z,7.70
2023-05-04T04:56:30.465Z,7.80
2023-05-04T04:58:57.694Z,7.80
2023-05-04T05:01:26.053Z,7.90
2023-05-04T05:03:52.958Z,7.90
2023-05-04T05:06:20.643Z,8.00
2023-05-04T05:08:47.919Z,8.00
2023-05-04T05:11:14.816Z,8.10
2023-05-04T05:13:41.761Z,8.20
2023-05-04T05:16:08.984Z,8.20
2023-05-04T05:18:35.944Z,8.30
2023-05-04T05:21:02.964Z,8.40
2023-05-04T05:23:29.811Z,8.50
2023-05-04T05:25:56.802Z,8.60
2023-05-04T05:28:23.899Z,8.70
2023-05-04T05:30:51.926Z,8.80
2023-05-04T05:33:19.109Z,8.90
2023-05-04T05:35:45.984Z,9.10
2023-05-04T05:38:13.008Z,9.20
2023-05-04T05:40:39.873Z,9.40
2023-05-04T05:43:06.745Z,9.60
2023-05-04T05:45:33.658Z,9.80
2023-05-04T05:48:00.665Z,9.90
2023-05-04T05:50:27.641Z,10.00
2023-05-04T05:52:54.557Z,10.10
2023-05-04T05:55:21.487Z,10.30
2023-05-04T05:57:48.453Z,10.30
2023-05-04T06:00:16.664Z,10.40
2023-05-04T06:02:44.284Z,10.50
2023-05-04T06:05:11.514Z,10.70
2023-05-04T06:07:38.438Z,10.70
2023-05-04T06:10:06.223Z,10.80
2023-05-04T06:12:33.420Z,11.00
2023-05-04T06:15:00.458Z,11.10
2023-05-04T06:17:27.312Z,11.30
2023-05-04T06:19:54.323Z,11.50
2023-05-04T06:22:21.383Z,11.80
2023-05-04T06:24:48.249Z,12.10
2023-05-04T06:27:15.183Z,12.20
2023-05-04T06:29:42.118Z,12.30
2023-05-04T06:32:10.772Z,12.40
2023-05-04T06:34:37.937Z,12.40
2023-05-04T06:37:04.833Z,12.40
2023-05-04T06:39:31.810Z,12.40
2023-05-04T06:41:59.459Z,12.30
2023-05-04T06:44:26.382Z,12.30
2023-05-04T06:46:53.803Z,12.40
2023-05-04T06:49:20.774Z,12.70
2023-05-04T06:51:47.899Z,12.90
2023-05-04T06:54:14.753Z,13.10
2023-05-04T06:56:42.074Z,13.20
2023-05-04T06:59:09.881Z,13.30
2023-05-04T07:01:37.339Z,13.50
2023-05-04T07:04:04.554Z,13.60
2023-05-04T07:06:32.106Z,13.70
2023-05-04T07:08:59.419Z,13.90
2023-05-04T07:11:27.821Z,14.20
2023-05-04T07:13:55.172Z,14.40
2023-05-04T07:16:22.108Z,14.60
2023-05-04T07:18:49.080Z,14.80
2023-05-04T07:21:27.608Z,14.90
2023-05-04T07:23:56.078Z,14.80
2023-05-04T07:26:23.486Z,14.80
2023-05-04T07:28:50.579Z,14.80
2023-05-04T07:31:17.500Z,15.00
2023-05-04T07:33:44.380Z,15.20
2023-05-04T07:36:11.261Z,15.30
2023-05-04T07:38:38.239Z,15.40
2023-05-04T07:41:05.268Z,15.40
2023-05-04T07:43:32.149Z,15.80
2023-05-04T07:45:59.065Z,16.10
2023-05-04T07:48:26.639Z,16.20
2023-05-04T07:50:54.757Z,16.50
2023-05-04T07:53:21.823Z,16.70
2023-05-04T07:55:48.820Z,16.70
2023-05-04T07:58:16.618Z,16.90
2023-05-04T08:03:45.193Z,17.40
2023-05-04T08:06:12.944Z,17.50
2023-05-04T08:08:39.958Z,17.40
2023-05-04T08:11:19.081Z,17.50
2023-05-04T08:13:49.369Z,17.70
2023-05-04T08:16:16.660Z,17.70
2023-05-04T08:18:43.625Z,17.80
2023-05-04T08:21:10.574Z,17.90
2023-05-04T08:23:37.596Z,17.90
2023-05-04T08:26:05.415Z,18.00
2023-05-04T08:28:39.130Z,18.20
2023-05-04T08:31:06.546Z,18.40
2023-05-04T08:33:34.570Z,18.50
2023-05-04T08:36:02.004Z,18.70
2023-05-04T08:38:29.736Z,18.80
2023-05-04T08:40:57.414Z,18.90
2023-05-04T08:43:24.593Z,18.80
2023-05-04T08:45:51.667Z,18.70
2023-05-04T08:48:18.833Z,19.00
2023-05-04T08:50:46.450Z,19.10
2023-05-04T08:53:15.954Z,19.30
2023-05-04T08:55:47.468Z,19.30
2023-05-04T08:58:18.657Z,19.80
2023-05-04T09:00:46.167Z,20.50
2023-05-04T09:03:16.391Z,20.80
2023-05-04T09:05:46.153Z,21.00
2023-05-04T09:08:14.853Z,20.80
2023-05-04T09:10:41.730Z,20.70
2023-05-04T09:13:08.686Z,20.50
2023-05-04T09:15:35.579Z,20.90
2023-05-04T09:18:09.737Z,21.20
2023-05-04T09:20:47.060Z,21.00
2023-05-04T09:23:17.588Z,20.70
2023-05-04T09:25:54.616Z,20.60
2023-05-04T09:28:39.175Z,20.90
2023-05-04T09:31:07.590Z,20.60
2023-05-04T09:33:35.358Z,20.60
2023-05-04T09:36:18.722Z,20.90
2023-05-04T09:38:45.968Z,21.00
2023-05-04T09:41:14.144Z,21.80
2023-05-04T09:43:43.709Z,22.00
2023-05-04T09:46:21.627Z,21.90
2023-05-04T09:48:55.463Z,21.80
2023-05-04T09:51:26.378Z,21.80
2023-05-04T09:53:53.992Z,21.70
2023-05-04T09:56:41.600Z,21.90
2023-05-04T09:59:10.146Z,22.30
2023-05-04T10:01:38.782Z,22.50
2023-05-04T10:04:06.985Z,23.00
2023-05-04T10:06:34.787Z,23.30
2023-05-04T10:09:02.367Z,23.30
2023-05-04T10:11:32.003Z,23.60
2023-05-04T10:13:59.083Z,23.60
2023-05-04T10:16:48.926Z,23.30
2023-05-04T10:19:43.204Z,23.10
2023-05-04T10:22:43.329Z,22.90
2023-05-04T10:26:16.710Z,23.10
2023-05-04T10:29:21.893Z,23.80
2023-05-04T10:31:51.041Z,24.00
2023-05-04T10:34:27.535Z,24.20
2023-05-04T10:36:55.546Z,24.40
2023-05-04T10:39:26.757Z,24.90
2023-05-04T10:42:07.283Z,24.70
2023-05-04T10:44:55.535Z,24.30
2023-05-04T10:47:35.522Z,24.80
2023-05-04T10:50:14.529Z,25.00
2023-05-04T10:52:56.765Z,25.20
2023-05-04T10:55:25.922Z,25.10
2023-05-04T10:57:57.833Z,25.40
2023-05-04T11:00:41.330Z,25.20
2023-05-04T11:03:08.622Z,25.00
2023-05-04T11:05:47.033Z,24.80
2023-05-04T11:08:26.306Z,25.50
2023-05-04T11:11:07.712Z,25.70
2023-05-04T11:13:45.394Z,25.40
2023-05-04T11:16:14.164Z,25.30
2023-05-04T11:18:41.628Z,25.50
2023-05-04T11:21:09.518Z,25.50
2023-05-04T11:23:38.189Z,25.40
2023-05-04T11:26:09.190Z,25.70
2023-05-04T11:28:38.173Z,25.80
2023-05-04T11:31:20.835Z,25.70
2023-05-04T11:33:55.183Z,26.60
2023-05-04T11:36:23.255Z,27.40
2023-05-04T11:38:50.974Z,27.60
2023-05-04T11:41:18.029Z,27.40
2023-05-04T11:43:47.014Z,26.50
2023-05-04T11:46:16.410Z,26.20
2023-05-04T11:48:44.226Z,26.80
2023-05-04T11:51:11.263Z,26.90
2023-05-04T11:53:40.980Z,27.10
2023-05-04T11:56:09.496Z,26.90
2023-05-04T11:58:37.594Z,27.00
2023-05-04T12:01:05.812Z,27.20
2023-05-04T12:03:48.529Z,27.50
2023-05-04T12:06:31.178Z,27.20
2023-05-04T12:09:06.709Z,27.10
2023-05-04T12:11:35.606Z,26.60
2023-05-04T12:14:17.039Z,26.00
2023-05-04T12:16:57.686Z,25.40
2023-05-04T12:19:24.744Z,25.10
2023-05-04T12:21:54.084Z,24.90
2023-05-04T12:24:27.744Z,25.20
2023-05-04T12:26:54.709Z,25.50
2023-05-04T12:29:21.952Z,25.40
2023-05-04T12:31:48.958Z,25.40
2023-05-04T12:34:16.098Z,25.50
2023-05-04T12:36:44.304Z,25.10
2023-05-04T12:39:11.297Z,25.20
2023-05-04T12:41:38.190Z,25.10
2023-05-04T12:44:05.307Z,25.10
2023-05-04T12:46:32.260Z,25.50
2023-05-04T12:48:59.193Z,25.60
2023-05-04T12:51:26.085Z,26.40
2023-05-04T12:53:52.973Z,26.70
2023-05-04T12:56:19.873Z,26.30
2023-05-04T12:58:46.739Z,26.70
2023-05-04T13:01:13.600Z,26.90
2023-05-04T13:03:40.707Z,26.80
2023-05-04T13:06:07.975Z,25.90
2023-05-04T13:08:35.403Z,25.10
2023-05-04T13:11:02.606Z,25.70
2023-05-04T13:13:29.847Z,26.80
2023-05-04T13:15:57.192Z,26.80
2023-05-04T13:18:27.504Z,26.20
2023-05-04T13:20:56.445Z,26.70
2023-05-04T13:23:24.332Z,26.90
2023-05-04T13:25:51.913Z,27.50
2023-05-04T13:28:19.384Z,28.20
2023-05-04T13:30:46.441Z,27.50
2023-05-04T13:33:28.061Z,27.50
2023-05-04T13:35:57.599Z,28.00
2023-05-04T13:38:24.723Z,28.00
2023-05-04T13:40:51.586Z,27.90
2023-05-04T13:43:18.570Z,27.40
2023-05-04T13:45:45.590Z,27.10
2023-05-04T13:48:12.501Z,26.70
2023-05-04T13:50:39.822Z,26.40
2023-05-04T13:53:06.810Z,25.70
2023-05-04T13:55:33.650Z,25.40
2023-05-04T13:58:00.583Z,25.00
2023-05-04T14:00:27.625Z,25.30
2023-05-04T14:02:54.630Z,25.60
2023-05-04T14:05:21.742Z,25.70
2023-05-04T14:07:49.083Z,25.90
2023-05-04T14:10:15.927Z,26.40
2023-05-04T14:12:42.819Z,26.90
2023-05-04T14:15:10.569Z,26.80
2023-05-04T14:17:39.306Z,27.50
2023-05-04T14:20:08.776Z,27.60
2023-05-04T14:22:38.035Z,27.50
2023-05-04T14:25:06.300Z,27.10
2023-05-04T14:27:35.260Z,27.20
2023-05-04T14:30:09.231Z,26.70
2023-05-04T14:32:36.920Z,26.50
2023-05-04T14:35:08.226Z,26.50
2023-05-04T14:37:38.633Z,25.90
2023-05-04T14:40:10.880Z,25.40
2023-05-04T14:42:38.806Z,25.70
2023-05-04T14:45:08.431Z,25.90
2023-05-04T14:47:35.812Z,25.90
2023-05-04T14:50:03.097Z,25.60
2023-05-04T14:52:30.005Z,25.80
2023-05-04T14:54:56.919Z,26.30
2023-05-04T14:57:23.897Z,26.40
2023-05-04T14:59:51.073Z,26.10
2023-05-04T15:02:20.845Z,26.00
2023-05-04T15:04:47.798Z,25.80
2023-05-04T15:07:16.037Z,25.40
2023-05-04T15:09:43.067Z,25.20
2023-05-04T15:12:10.274Z,25.10
2023-05-04T15:14:37.657Z,25.00
2023-05-04T15:17:05.239Z,25.10
2023-05-04T15:19:32.165Z,25.40
2023-05-04T15:21:59.044Z,24.90
2023-05-04T15:24:25.876Z,24.30
2023-05-04T15:26:52.752Z,23.80
2023-05-04T15:29:19.670Z,23.80
2023-05-04T15:31:46.906Z,23.80
2023-05-04T15:34:15.608Z,24.00
2023-05-04T15:36:44.190Z,24.10
2023-05-04T15:39:11.189Z,23.80
2023-05-04T15:41:38.073Z,23.60
2023-05-04T15:44:08.636Z,23.70
2023-05-04T15:46:35.914Z,23.80
2023-05-04T15:49:03.041Z,23.60
2023-05-04T15:51:32.023Z,23.50
2023-05-04T15:54:00.233Z,23.50
2023-05-04T15:56:27.971Z,23.30
2023-05-04T15:58:54.842Z,23.20
2023-05-04T16:01:21.800Z,23.20
2023-05-04T16:03:48.812Z,23.20
2023-05-04T16:06:17.331Z,22.90
2023-05-04T16:08:44.213Z,22.60
2023-05-04T16:11:11.263Z,22.90
2023-05-04T16:13:38.206Z,23.00
2023-05-04T16:16:05.740Z,22.80
2023-05-04T16:18:32.617Z,22.50
2023-05-04T16:20:59.629Z,22.70
2023-05-04T16:23:27.866Z,23.00
2023-05-04T16:25:54.841Z,23.10
2023-05-04T16:28:21.835Z,22.70
2023-05-04T16:30:51.625Z,22.50
2023-05-04T16:33:19.672Z,22.30
2023-05-04T16:35:46.893Z,22.10
2023-05-04T16:38:13.835Z,22.00
2023-05-04T16:40:42.625Z,21.80
2023-05-04T16:43:10.314Z,21.70
2023-05-04T16:45:38.142Z,21.40
2023-05-04T16:48:06.211Z,20.90
2023-05-04T16:50:33.474Z,20.80
2023-05-04T16:53:00.434Z,20.70
2023-05-04T16:55:27.410Z,20.80
2023-05-04T16:57:58.422Z,20.80
2023-05-04T17:00:25.793Z,20.80
2023-05-04T17:02:53.088Z,20.60
2023-05-04T17:05:20.960Z,20.30
2023-05-04T17:07:47.878Z,20.10
2023-05-04T17:10:14.924Z,20.00
2023-05-04T17:12:42.283Z,19.80
2023-05-04T17:15:10.877Z,19.70
2023-05-04T17:17:37.945Z,19.60
2023-05-04T17:20:08.421Z,19.50
2023-05-04T17:22:36.249Z,19.30
2023-05-04T17:25:03.181Z,19.10
2023-05-04T17:27:30.531Z,18.90
2023-05-04T17:29:57.412Z,18.90
2023-05-04T17:32:24.319Z,18.80
2023-05-04T17:34:51.252Z,18.70
2023-05-04T17:37:18.292Z,18.70
2023-05-04T17:39:47.006Z,18.70
2023-05-04T17:42:15.748Z,18.60
2023-05-04T17:44:42.852Z,18.40
2023-05-04T17:47:10.098Z,18.20
2023-05-04T17:49:36.989Z,18.00
2023-05-04T17:52:04.313Z,17.90
2023-05-04T17:54:31.317Z,17.70
2023-05-04T17:56:58.232Z,17.60
2023-05-04T17:59:25.199Z,17.50
2023-05-04T18:01:52.074Z,17.30
2023-05-04T18:04:18.937Z,17.10
2023-05-04T18:06:45.914Z,17.00
2023-05-04T18:09:12.826Z,16.90
2023-05-04T18:11:39.832Z,16.70
2023-05-04T18:14:07.023Z,16.60
2023-05-04T18:16:36.124Z,16.50
2023-05-04T18:19:03.936Z,16.30
2023-05-04T18:21:31.473Z,16.10
2023-05-04T18:23:58.443Z,16.00
2023-05-04T18:26:25.315Z,15.80
2023-05-04T18:28:52.164Z,15.70
2023-05-04T18:31:19.173Z,15.60
2023-05-04T18:33:46.524Z,15.50
2023-05-04T18:36:13.409Z,15.50
2023-05-04T18:38:40.842Z,15.40
2023-05-04T18:41:07.843Z,15.30
2023-05-04T18:43:34.864Z,15.20
2023-05-04T18:46:08.620Z,15.10
2023-05-04T18:48:35.573Z,14.90
2023-05-04T18:51:02.720Z,14.80
2023-05-04T18:53:29.869Z,14.60
2023-05-04T18:56:05.799Z,14.40
2023-05-04T18:58:34.087Z,14.20
2023-05-04T19:01:01.165Z,14.00
2023-05-04T19:03:28.582Z,13.90
2023-05-04T19:05:56.129Z,13.70
2023-05-04T19:08:23.262Z,13.40
2023-05-04T19:10:50.593Z,13.10
2023-05-04T19:13:17.590Z,12.80
2023-05-04T19:15:44.688Z,12.60
2023-05-04T19:18:12.139Z,12.40
2023-05-04T19:20:39.703Z,12.30
2023-05-04T19:23:06.605Z,12.20
2023-05-04T19:25:35.144Z,12.10
2023-05-04T19:28:08.505Z,12.00
2023-05-04T19:30:39.970Z,11.90
2023-05-04T19:33:10.350Z,11.90
2023-05-04T19:35:37.368Z,11.90
2023-05-04T19:38:06.521Z,12.00
2023-05-04T19:40:34.748Z,12.00
2023-05-04T19:43:01.901Z,11.90
2023-05-04T19:45:28.848Z,11.90
2023-05-04T19:47:56.414Z,11.90
2023-05-04T19:50:23.455Z,12.00
2023-05-04T19:52:50.497Z,12.20
2023-05-04T19:55:17.800Z,12.30
2023-05-04T19:57:44.917Z,12.50
2023-05-04T20:00:13.174Z,12.80
2023-05-04T20:02:40.281Z,12.90
2023-05-04T20:05:07.758Z,13.10
2023-05-04T20:07:34.747Z,13.30
2023-05-04T20:10:01.770Z,13.30
2023-05-04T20:12:29.597Z,13.30
2023-05-04T20:14:56.604Z,13.30
2023-05-04T20:17:23.763Z,13.20
2023-05-04T20:19:50.866Z,13.10
2023-05-04T20:22:17.893Z,13.00
2023-05-04T20:24:44.920Z,12.90
2023-05-04T20:27:12.335Z,12.80
2023-05-04T20:29:39.327Z,12.80
2023-05-04T20:32:07.236Z,12.80
2023-05-04T20:34:34.574Z,12.60
2023-05-04T20:37:02.266Z,12.40
2023-05-04T20:39:29.134Z,12.10
2023-05-04T20:41:56.009Z,11.80
2023-05-04T20:44:22.871Z,11.40
2023-05-04T20:46:49.819Z,11.20
2023-05-04T20:49:16.957Z,11.00
2023-05-04T20:51:43.889Z,10.80
2023-05-04T20:54:11.562Z,10.70
2023-05-04T20:56:38.477Z,10.50
2023-05-04T20:59:05.431Z,10.40
2023-05-04T21:01:33.227Z,10.30
2023-05-04T21:04:00.355Z,10.20
2023-05-04T21:06:27.344Z,10.10
2023-05-04T21:08:54.371Z,10.00
2023-05-04T21:11:21.253Z,10.00
2023-05-04T21:13:48.158Z,10.00
2023-05-04T21:16:15.075Z,10.00
2023-05-04T21:18:44.511Z,10.00
2023-05-04T21:21:11.504Z,10.10
2023-05-04T21:23:38.502Z,10.00
2023-05-04T21:26:05.990Z,9.80
2023-05-04T21:28:33.473Z,9.70
2023-05-04T21:31:00.625Z,9.60
2023-05-04T21:33:27.628Z,9.50
2023-05-04T21:35:54.716Z,9.50
2023-05-04T21:38:22.348Z,9.60
2023-05-04T21:40:49.560Z,9.60
2023-05-04T21:43:16.466Z,9.70
2023-05-04T21:45:43.394Z,9.70
2023-05-04T21:48:10.440Z,9.70
2023-05-04T21:50:37.408Z,9.70
2023-05-04T21:53:04.305Z,9.60
2023-05-04T21:55:31.234Z,9.50
2023-05-04T21:57:58.103Z,9.50
2023-05-04T22:00:25.326Z,9.40
2023-05-04T22:02:54.893Z,9.40
2023-05-04T22:05:22.346Z,9.50
2023-05-04T22:07:50.296Z,9.40
2023-05-04T22:10:17.988Z,9.30
2023-05-04T22:12:44.952Z,9.20
2023-05-04T22:15:12.679Z,9.10
2023-05-04T22:17:39.768Z,9.00
2023-05-04T22:20:07.978Z,9.00
2023-05-04T22:22:35.813Z,9.00
2023-05-04T22:25:03.073Z,9.10
2023-05-04T22:27:30.149Z,9.20
2023-05-04T22:29:57.648Z,9.10
2023-05-04T22:32:24.618Z,9.20
2023-05-04T22:34:51.480Z,9.40
2023-05-04T22:37:18.618Z,9.50
2023-05-04T22:39:45.480Z,9.60
2023-05-04T22:42:12.376Z,9.60
2023-05-04T22:44:39.497Z,9.60
2023-05-04T22:47:06.505Z,9.50
2023-05-04T22:49:33.495Z,9.60
2023-05-04T22:52:00.695Z,9.70
2023-05-04T22:54:27.795Z,10.00
2023-05-04T22:56:54.808Z,10.10
2023-05-04T22:59:21.768Z,10.40
2023-05-04T23:01:49.908Z,10.50
2023-05-04T23:04:16.918Z,10.40
2023-05-04T23:06:43.898Z,10.10
2023-05-04T23:09:11.561Z,9.70
2023-05-04T23:11:38.447Z,9.40
2023-05-04T23:14:05.484Z,9.20
2023-05-04T23:16:33.021Z,9.10
2023-05-04T23:18:59.960Z,9.10
2023-05-04T23:21:27.210Z,9.00
2023-05-04T23:23:54.217Z,9.00
2023-05-04T23:26:21.273Z,9.00
2023-05-04T23:28:48.367Z,9.10
2023-05-04T23:31:15.585Z,9.10
2023-05-04T23:33:42.472Z,9.10
2023-05-04T23:36:10.449Z,9.30
2023-05-04T23:38:37.298Z,9.40
2023-05-04T23:41:04.664Z,9.60
2023-05-04T23:43:31.985Z,9.80
2023-05-04T23:46:04.837Z,9.90
2023-05-04T23:48:32.807Z,10.00
2023-05-04T23:51:06.328Z,10.10
2023-05-04T23:53:35.071Z,10.20
2023-05-04T23:56:06.086Z,10.20
2023-05-04T23:58:35.396Z,10.30
